sensor_id;sensor_type;location;lat;lon;timestamp;P1;durP1;ratioP1;P2;durP2;ratioP2
20731;SDS011;10527;52.124;5.196;2023-05-28T00:01:21;12.00;;;3.95;;
20731;SDS011;10527;52.124;5.196;2023-05-28T00:03:49;13.63;;;5.00;;
20731;SDS011;10527;52.124;5.196;2023-05-28T00:06:16;16.85;;;4.72;;
20731;SDS011;10527;52.124;5.196;2023-05-28T00:08:43;8.82;;;4.85;;
20731;SDS011;10527;52.124;5.196;2023-05-28T00:11:10;10.25;;;4.05;;
20731;SDS011;10527;52.124;5.196;2023-05-28T00:13:38;12.90;;;3.80;;
20731;SDS011;10527;52.124;5.196;2023-05-28T00:16:05;11.27;;;3.60;;
20731;SDS011;10527;52.124;5.196;2023-05-28T00:18:32;12.40;;;4.18;;
20731;SDS011;10527;52.124;5.196;2023-05-28T00:20:59;13.45;;;4.18;;
20731;SDS011;10527;52.124;5.196;2023-05-28T00:23:27;12.13;;;4.05;;
20731;SDS011;10527;52.124;5.196;2023-05-28T00:25:55;14.23;;;4.18;;
20731;SDS011;10527;52.124;5.196;2023-05-28T00:28:22;12.88;;;4.32;;
20731;SDS011;10527;52.124;5.196;2023-05-28T00:30:49;11.00;;;4.43;;
20731;SDS011;10527;52.124;5.196;2023-05-28T00:33:16;14.65;;;5.22;;
20731;SDS011;10527;52.124;5.196;2023-05-28T00:35:42;12.15;;;4.53;;
20731;SDS011;10527;52.124;5.196;2023-05-28T00:38:09;14.85;;;4.70;;
20731;SDS011;10527;52.124;5.196;2023-05-28T00:40:36;11.23;;;3.88;;
20731;SDS011;10527;52.124;5.196;2023-05-28T00:43:03;13.35;;;4.55;;
20731;SDS011;10527;52.124;5.196;2023-05-28T00:45:30;12.07;;;4.05;;
20731;SDS011;10527;52.124;5.196;2023-05-28T00:47:57;8.68;;;4.22;;
20731;SDS011;10527;52.124;5.196;2023-05-28T00:50:24;10.88;;;3.53;;
20731;SDS011;10527;52.124;5.196;2023-05-28T00:52:52;9.43;;;3.63;;
20731;SDS011;10527;52.124;5.196;2023-05-28T00:55:21;8.10;;;3.55;;
20731;SDS011;10527;52.124;5.196;2023-05-28T00:57:49;14.85;;;5.13;;
20731;SDS011;10527;52.124;5.196;2023-05-28T01:00:20;11.63;;;4.60;;
20731;SDS011;10527;52.124;5.196;2023-05-28T01:02:48;11.52;;;4.43;;
20731;SDS011;10527;52.124;5.196;2023-05-28T01:05:15;11.60;;;5.13;;
20731;SDS011;10527;52.124;5.196;2023-05-28T01:07:43;11.40;;;4.25;;
20731;SDS011;10527;52.124;5.196;2023-05-28T01:10:11;12.27;;;3.92;;
20731;SDS011;10527;52.124;5.196;2023-05-28T01:12:38;10.15;;;3.85;;
20731;SDS011;10527;52.124;5.196;2023-05-28T01:15:08;11.40;;;4.18;;
20731;SDS011;10527;52.124;5.196;2023-05-28T01:17:36;7.40;;;3.90;;
20731;SDS011;10527;52.124;5.196;2023-05-28T01:20:04;11.50;;;4.25;;
20731;SDS011;10527;52.124;5.196;2023-05-28T01:22:37;11.85;;;4.32;;
20731;SDS011;10527;52.124;5.196;2023-05-28T01:25:12;14.70;;;4.10;;
20731;SDS011;10527;52.124;5.196;2023-05-28T01:27:43;9.85;;;4.57;;
20731;SDS011;10527;52.124;5.196;2023-05-28T01:30:10;12.80;;;5.07;;
20731;SDS011;10527;52.124;5.196;2023-05-28T01:32:38;15.98;;;5.25;;
20731;SDS011;10527;52.124;5.196;2023-05-28T01:35:05;10.85;;;4.57;;
20731;SDS011;10527;52.124;5.196;2023-05-28T01:37:37;12.40;;;5.13;;
20731;SDS011;10527;52.124;5.196;2023-05-28T01:40:12;12.77;;;3.92;;
20731;SDS011;10527;52.124;5.196;2023-05-28T01:42:43;16.55;;;6.00;;
20731;SDS011;10527;52.124;5.196;2023-05-28T01:45:12;10.48;;;4.05;;
20731;SDS011;10527;52.124;5.196;2023-05-28T01:47:43;12.07;;;4.65;;
20731;SDS011;10527;52.124;5.196;2023-05-28T01:50:10;10.65;;;4.18;;
20731;SDS011;10527;52.124;5.196;2023-05-28T01:52:40;12.32;;;4.78;;
20731;SDS011;10527;52.124;5.196;2023-05-28T01:55:07;12.60;;;4.25;;
20731;SDS011;10527;52.124;5.196;2023-05-28T01:57:36;11.57;;;4.53;;
20731;SDS011;10527;52.124;5.196;2023-05-28T02:00:04;9.60;;;4.05;;
20731;SDS011;10527;52.124;5.196;2023-05-28T02:02:33;10.70;;;4.25;;
20731;SDS011;10527;52.124;5.196;2023-05-28T02:05:00;11.32;;;4.85;;
20731;SDS011;10527;52.124;5.196;2023-05-28T02:07:28;10.60;;;4.15;;
20731;SDS011;10527;52.124;5.196;2023-05-28T02:09:55;17.02;;;4.65;;
20731;SDS011;10527;52.124;5.196;2023-05-28T02:12:22;10.15;;;4.53;;
20731;SDS011;10527;52.124;5.196;2023-05-28T02:14:49;12.85;;;4.47;;
20731;SDS011;10527;52.124;5.196;2023-05-28T02:17:16;11.18;;;4.93;;
20731;SDS011;10527;52.124;5.196;2023-05-28T02:19:43;10.05;;;4.25;;
20731;SDS011;10527;52.124;5.196;2023-05-28T02:22:10;13.40;;;4.88;;
20731;SDS011;10527;52.124;5.196;2023-05-28T02:24:38;7.50;;;4.30;;
20731;SDS011;10527;52.124;5.196;2023-05-28T02:27:08;9.80;;;5.03;;
20731;SDS011;10527;52.124;5.196;2023-05-28T02:29:36;10.93;;;4.88;;
20731;SDS011;10527;52.124;5.196;2023-05-28T02:32:03;12.02;;;5.00;;
20731;SDS011;10527;52.124;5.196;2023-05-28T02:34:30;12.45;;;4.65;;
20731;SDS011;10527;52.124;5.196;2023-05-28T02:36:57;9.32;;;4.38;;
20731;SDS011;10527;52.124;5.196;2023-05-28T02:39:26;11.82;;;4.78;;
20731;SDS011;10527;52.124;5.196;2023-05-28T02:41:53;11.07;;;5.60;;
20731;SDS011;10527;52.124;5.196;2023-05-28T02:44:21;10.75;;;4.55;;
20731;SDS011;10527;52.124;5.196;2023-05-28T02:46:49;11.85;;;5.00;;
20731;SDS011;10527;52.124;5.196;2023-05-28T02:49:16;9.52;;;4.72;;
20731;SDS011;10527;52.124;5.196;2023-05-28T02:51:43;12.40;;;4.90;;
20731;SDS011;10527;52.124;5.196;2023-05-28T02:54:09;12.80;;;5.32;;
20731;SDS011;10527;52.124;5.196;2023-05-28T02:56:36;12.55;;;4.95;;
20731;SDS011;10527;52.124;5.196;2023-05-28T02:59:03;13.38;;;5.72;;
20731;SDS011;10527;52.124;5.196;2023-05-28T03:01:30;12.68;;;4.78;;
20731;SDS011;10527;52.124;5.196;2023-05-28T03:03:57;13.18;;;4.88;;
20731;SDS011;10527;52.124;5.196;2023-05-28T03:06:24;12.18;;;4.90;;
20731;SDS011;10527;52.124;5.196;2023-05-28T03:08:50;13.98;;;4.90;;
20731;SDS011;10527;52.124;5.196;2023-05-28T03:11:17;13.05;;;4.70;;
20731;SDS011;10527;52.124;5.196;2023-05-28T03:13:44;14.27;;;5.47;;
20731;SDS011;10527;52.124;5.196;2023-05-28T03:16:11;12.20;;;5.40;;
20731;SDS011;10527;52.124;5.196;2023-05-28T03:18:40;14.88;;;5.57;;
20731;SDS011;10527;52.124;5.196;2023-05-28T03:21:06;12.48;;;5.20;;
20731;SDS011;10527;52.124;5.196;2023-05-28T03:23:36;11.77;;;4.90;;
20731;SDS011;10527;52.124;5.196;2023-05-28T03:26:03;12.52;;;5.18;;
20731;SDS011;10527;52.124;5.196;2023-05-28T03:28:29;12.35;;;5.22;;
20731;SDS011;10527;52.124;5.196;2023-05-28T03:30:56;10.27;;;5.25;;
20731;SDS011;10527;52.124;5.196;2023-05-28T03:33:24;12.25;;;5.47;;
20731;SDS011;10527;52.124;5.196;2023-05-28T03:35:51;10.38;;;4.32;;
20731;SDS011;10527;52.124;5.196;2023-05-28T03:38:18;13.98;;;5.30;;
20731;SDS011;10527;52.124;5.196;2023-05-28T03:40:45;14.07;;;5.22;;
20731;SDS011;10527;52.124;5.196;2023-05-28T03:43:12;10.00;;;5.43;;
20731;SDS011;10527;52.124;5.196;2023-05-28T03:45:39;10.98;;;4.78;;
20731;SDS011;10527;52.124;5.196;2023-05-28T03:48:06;10.07;;;5.20;;
20731;SDS011;10527;52.124;5.196;2023-05-28T03:50:33;10.07;;;5.00;;
20731;SDS011;10527;52.124;5.196;2023-05-28T03:53:00;15.18;;;4.93;;
20731;SDS011;10527;52.124;5.196;2023-05-28T03:55:27;10.73;;;4.57;;
20731;SDS011;10527;52.124;5.196;2023-05-28T03:57:55;12.55;;;5.00;;
20731;SDS011;10527;52.124;5.196;2023-05-28T04:00:21;10.70;;;5.15;;
20731;SDS011;10527;52.124;5.196;2023-05-28T04:02:51;12.02;;;4.70;;
20731;SDS011;10527;52.124;5.196;2023-05-28T04:05:18;10.35;;;5.10;;
20731;SDS011;10527;52.124;5.196;2023-05-28T04:07:45;13.52;;;5.00;;
20731;SDS011;10527;52.124;5.196;2023-05-28T04:10:12;14.23;;;5.85;;
20731;SDS011;10527;52.124;5.196;2023-05-28T04:12:38;12.43;;;5.40;;
20731;SDS011;10527;52.124;5.196;2023-05-28T04:15:05;12.63;;;4.95;;
20731;SDS011;10527;52.124;5.196;2023-05-28T04:17:33;11.05;;;5.80;;
20731;SDS011;10527;52.124;5.196;2023-05-28T04:20:00;14.40;;;5.05;;
20731;SDS011;10527;52.124;5.196;2023-05-28T04:22:27;14.15;;;5.82;;
20731;SDS011;10527;52.124;5.196;2023-05-28T04:24:53;11.85;;;5.68;;
20731;SDS011;10527;52.124;5.196;2023-05-28T04:27:21;13.05;;;6.53;;
20731;SDS011;10527;52.124;5.196;2023-05-28T04:29:49;15.00;;;5.60;;
20731;SDS011;10527;52.124;5.196;2023-05-28T04:32:18;12.85;;;5.47;;
20731;SDS011;10527;52.124;5.196;2023-05-28T04:34:46;10.95;;;5.47;;
20731;SDS011;10527;52.124;5.196;2023-05-28T04:37:13;13.73;;;5.53;;
20731;SDS011;10527;52.124;5.196;2023-05-28T04:39:41;13.60;;;4.75;;
20731;SDS011;10527;52.124;5.196;2023-05-28T04:42:08;12.40;;;4.63;;
20731;SDS011;10527;52.124;5.196;2023-05-28T04:44:39;11.07;;;5.22;;
20731;SDS011;10527;52.124;5.196;2023-05-28T04:47:07;13.40;;;5.40;;
20731;SDS011;10527;52.124;5.196;2023-05-28T04:49:35;15.90;;;5.97;;
20731;SDS011;10527;52.124;5.196;2023-05-28T04:52:02;8.85;;;4.35;;
20731;SDS011;10527;52.124;5.196;2023-05-28T04:54:29;13.82;;;5.25;;
20731;SDS011;10527;52.124;5.196;2023-05-28T04:56:56;8.68;;;4.75;;
20731;SDS011;10527;52.124;5.196;2023-05-28T04:59:23;9.30;;;4.93;;
20731;SDS011;10527;52.124;5.196;2023-05-28T05:01:50;9.60;;;5.10;;
20731;SDS011;10527;52.124;5.196;2023-05-28T05:04:17;11.95;;;4.93;;
20731;SDS011;10527;52.124;5.196;2023-05-28T05:06:44;12.18;;;5.43;;
20731;SDS011;10527;52.124;5.196;2023-05-28T05:09:11;10.75;;;4.78;;
20731;SDS011;10527;52.124;5.196;2023-05-28T05:11:38;13.95;;;5.28;;
20731;SDS011;10527;52.124;5.196;2023-05-28T05:14:04;10.50;;;5.47;;
20731;SDS011;10527;52.124;5.196;2023-05-28T05:16:31;12.32;;;5.43;;
20731;SDS011;10527;52.124;5.196;2023-05-28T05:18:59;12.75;;;5.28;;
20731;SDS011;10527;52.124;5.196;2023-05-28T05:21:25;13.50;;;4.95;;
20731;SDS011;10527;52.124;5.196;2023-05-28T05:23:52;10.40;;;5.13;;
20731;SDS011;10527;52.124;5.196;2023-05-28T05:26:19;11.85;;;4.95;;
20731;SDS011;10527;52.124;5.196;2023-05-28T05:28:47;13.93;;;4.88;;
20731;SDS011;10527;52.124;5.196;2023-05-28T05:31:13;13.48;;;4.43;;
20731;SDS011;10527;52.124;5.196;2023-05-28T05:33:40;10.48;;;4.80;;
20731;SDS011;10527;52.124;5.196;2023-05-28T05:36:08;13.93;;;4.75;;
20731;SDS011;10527;52.124;5.196;2023-05-28T05:38:37;10.68;;;4.93;;
20731;SDS011;10527;52.124;5.196;2023-05-28T05:41:04;9.85;;;4.30;;
20731;SDS011;10527;52.124;5.196;2023-05-28T05:43:31;14.57;;;5.28;;
20731;SDS011;10527;52.124;5.196;2023-05-28T05:45:58;10.32;;;4.85;;
20731;SDS011;10527;52.124;5.196;2023-05-28T05:48:28;14.32;;;5.43;;
20731;SDS011;10527;52.124;5.196;2023-05-28T05:50:54;10.70;;;5.55;;
20731;SDS011;10527;52.124;5.196;2023-05-28T05:53:22;13.52;;;5.75;;
20731;SDS011;10527;52.124;5.196;2023-05-28T05:55:49;15.40;;;6.22;;
20731;SDS011;10527;52.124;5.196;2023-05-28T05:58:17;11.13;;;5.20;;
20731;SDS011;10527;52.124;5.196;2023-05-28T06:00:44;9.63;;;5.38;;
20731;SDS011;10527;52.124;5.196;2023-05-28T06:03:11;39.78;;;5.95;;
20731;SDS011;10527;52.124;5.196;2023-05-28T06:05:38;11.13;;;5.00;;
20731;SDS011;10527;52.124;5.196;2023-05-28T06:08:05;12.15;;;5.40;;
20731;SDS011;10527;52.124;5.196;2023-05-28T06:10:32;10.10;;;4.55;;
20731;SDS011;10527;52.124;5.196;2023-05-28T06:12:59;10.30;;;5.25;;
20731;SDS011;10527;52.124;5.196;2023-05-28T06:15:27;14.63;;;5.50;;
20731;SDS011;10527;52.124;5.196;2023-05-28T06:17:55;16.17;;;5.63;;
20731;SDS011;10527;52.124;5.196;2023-05-28T06:20:22;13.27;;;5.20;;
20731;SDS011;10527;52.124;5.196;2023-05-28T06:22:49;12.18;;;4.97;;
20731;SDS011;10527;52.124;5.196;2023-05-28T06:25:17;12.93;;;5.43;;
20731;SDS011;10527;52.124;5.196;2023-05-28T06:27:44;12.85;;;4.90;;
20731;SDS011;10527;52.124;5.196;2023-05-28T06:30:11;11.48;;;4.60;;
20731;SDS011;10527;52.124;5.196;2023-05-28T06:32:38;7.22;;;4.00;;
20731;SDS011;10527;52.124;5.196;2023-05-28T06:35:05;11.02;;;5.35;;
20731;SDS011;10527;52.124;5.196;2023-05-28T06:37:34;12.20;;;5.55;;
20731;SDS011;10527;52.124;5.196;2023-05-28T06:40:03;10.10;;;4.97;;
20731;SDS011;10527;52.124;5.196;2023-05-28T06:42:32;10.98;;;5.28;;
20731;SDS011;10527;52.124;5.196;2023-05-28T06:44:59;11.27;;;4.85;;
20731;SDS011;10527;52.124;5.196;2023-05-28T06:47:26;12.57;;;4.90;;
20731;SDS011;10527;52.124;5.196;2023-05-28T06:49:54;10.88;;;4.70;;
20731;SDS011;10527;52.124;5.196;2023-05-28T06:52:22;11.30;;;5.15;;
20731;SDS011;10527;52.124;5.196;2023-05-28T06:54:52;7.90;;;3.92;;
20731;SDS011;10527;52.124;5.196;2023-05-28T06:57:20;9.20;;;4.63;;
20731;SDS011;10527;52.124;5.196;2023-05-28T06:59:47;12.13;;;5.05;;
20731;SDS011;10527;52.124;5.196;2023-05-28T07:02:14;13.35;;;5.13;;
20731;SDS011;10527;52.124;5.196;2023-05-28T07:04:41;9.27;;;4.45;;
20731;SDS011;10527;52.124;5.196;2023-05-28T07:07:10;10.13;;;4.47;;
20731;SDS011;10527;52.124;5.196;2023-05-28T07:09:37;9.68;;;4.60;;
20731;SDS011;10527;52.124;5.196;2023-05-28T07:12:05;10.45;;;5.00;;
20731;SDS011;10527;52.124;5.196;2023-05-28T07:14:32;11.95;;;4.45;;
20731;SDS011;10527;52.124;5.196;2023-05-28T07:16:59;10.43;;;4.65;;
20731;SDS011;10527;52.124;5.196;2023-05-28T07:19:25;10.75;;;5.40;;
20731;SDS011;10527;52.124;5.196;2023-05-28T07:21:52;11.40;;;4.30;;
20731;SDS011;10527;52.124;5.196;2023-05-28T07:24:19;11.88;;;5.47;;
20731;SDS011;10527;52.124;5.196;2023-05-28T07:26:46;12.10;;;5.50;;
20731;SDS011;10527;52.124;5.196;2023-05-28T07:29:13;11.68;;;4.72;;
20731;SDS011;10527;52.124;5.196;2023-05-28T07:31:43;12.35;;;4.55;;
20731;SDS011;10527;52.124;5.196;2023-05-28T07:34:10;13.82;;;4.72;;
20731;SDS011;10527;52.124;5.196;2023-05-28T07:36:37;12.02;;;5.13;;
20731;SDS011;10527;52.124;5.196;2023-05-28T07:39:04;13.30;;;4.97;;
20731;SDS011;10527;52.124;5.196;2023-05-28T07:41:32;11.68;;;4.90;;
20731;SDS011;10527;52.124;5.196;2023-05-28T07:44:00;10.32;;;4.78;;
20731;SDS011;10527;52.124;5.196;2023-05-28T07:46:28;13.07;;;4.80;;
20731;SDS011;10527;52.124;5.196;2023-05-28T07:48:56;10.45;;;4.15;;
20731;SDS011;10527;52.124;5.196;2023-05-28T07:51:23;10.32;;;4.45;;
20731;SDS011;10527;52.124;5.196;2023-05-28T07:53:52;10.43;;;4.22;;
20731;SDS011;10527;52.124;5.196;2023-05-28T07:56:20;7.20;;;3.58;;
20731;SDS011;10527;52.124;5.196;2023-05-28T07:58:50;11.18;;;4.07;;
20731;SDS011;10527;52.124;5.196;2023-05-28T08:01:19;9.57;;;3.92;;
20731;SDS011;10527;52.124;5.196;2023-05-28T08:03:47;11.82;;;4.47;;
20731;SDS011;10527;52.124;5.196;2023-05-28T08:06:17;8.88;;;3.45;;
20731;SDS011;10527;52.124;5.196;2023-05-28T08:08:44;9.60;;;3.85;;
20731;SDS011;10527;52.124;5.196;2023-05-28T08:11:11;11.52;;;4.20;;
20731;SDS011;10527;52.124;5.196;2023-05-28T08:13:40;7.95;;;3.58;;
20731;SDS011;10527;52.124;5.196;2023-05-28T08:16:10;9.18;;;3.40;;
20731;SDS011;10527;52.124;5.196;2023-05-28T08:18:40;11.32;;;4.10;;
20731;SDS011;10527;52.124;5.196;2023-05-28T08:21:06;12.73;;;3.67;;
20731;SDS011;10527;52.124;5.196;2023-05-28T08:23:34;10.20;;;3.40;;
20731;SDS011;10527;52.124;5.196;2023-05-28T08:26:01;9.70;;;3.45;;
20731;SDS011;10527;52.124;5.196;2023-05-28T08:28:29;8.00;;;3.00;;
20731;SDS011;10527;52.124;5.196;2023-05-28T08:30:56;9.70;;;3.70;;
20731;SDS011;10527;52.124;5.196;2023-05-28T08:33:23;8.00;;;3.58;;
20731;SDS011;10527;52.124;5.196;2023-05-28T08:35:50;9.73;;;4.43;;
20731;SDS011;10527;52.124;5.196;2023-05-28T08:38:18;9.02;;;3.30;;
20731;SDS011;10527;52.124;5.196;2023-05-28T08:40:48;8.05;;;3.08;;
20731;SDS011;10527;52.124;5.196;2023-05-28T08:43:20;9.82;;;3.17;;
20731;SDS011;10527;52.124;5.196;2023-05-28T08:45:51;10.95;;;4.47;;
20731;SDS011;10527;52.124;5.196;2023-05-28T08:48:19;11.27;;;5.38;;
20731;SDS011;10527;52.124;5.196;2023-05-28T08:50:49;8.57;;;3.45;;
20731;SDS011;10527;52.124;5.196;2023-05-28T08:53:20;7.93;;;3.40;;
20731;SDS011;10527;52.124;5.196;2023-05-28T08:55:54;8.20;;;3.35;;
20731;SDS011;10527;52.124;5.196;2023-05-28T08:58:22;13.30;;;4.28;;
20731;SDS011;10527;52.124;5.196;2023-05-28T09:00:49;9.25;;;4.00;;
20731;SDS011;10527;52.124;5.196;2023-05-28T09:03:16;11.63;;;4.00;;
20731;SDS011;10527;52.124;5.196;2023-05-28T09:05:43;10.15;;;3.22;;
20731;SDS011;10527;52.124;5.196;2023-05-28T09:08:12;10.15;;;3.38;;
20731;SDS011;10527;52.124;5.196;2023-05-28T09:10:40;8.70;;;3.30;;
20731;SDS011;10527;52.124;5.196;2023-05-28T09:13:07;8.13;;;3.13;;
20731;SDS011;10527;52.124;5.196;2023-05-28T09:15:34;7.25;;;3.40;;
20731;SDS011;10527;52.124;5.196;2023-05-28T09:18:03;9.80;;;3.63;;
20731;SDS011;10527;52.124;5.196;2023-05-28T09:20:32;8.35;;;3.72;;
20731;SDS011;10527;52.124;5.196;2023-05-28T09:23:03;10.15;;;4.18;;
20731;SDS011;10527;52.124;5.196;2023-05-28T09:25:33;8.02;;;3.80;;
20731;SDS011;10527;52.124;5.196;2023-05-28T09:28:02;11.80;;;4.72;;
20731;SDS011;10527;52.124;5.196;2023-05-28T09:30:36;12.05;;;4.93;;
20731;SDS011;10527;52.124;5.196;2023-05-28T09:33:04;8.98;;;3.67;;
20731;SDS011;10527;52.124;5.196;2023-05-28T09:35:34;8.57;;;3.22;;
20731;SDS011;10527;52.124;5.196;2023-05-28T09:38:03;10.55;;;3.75;;
20731;SDS011;10527;52.124;5.196;2023-05-28T09:40:32;10.00;;;3.35;;
20731;SDS011;10527;52.124;5.196;2023-05-28T09:43:12;9.40;;;3.47;;
20731;SDS011;10527;52.124;5.196;2023-05-28T09:45:39;9.50;;;3.35;;
20731;SDS011;10527;52.124;5.196;2023-05-28T09:48:06;9.35;;;3.85;;
20731;SDS011;10527;52.124;5.196;2023-05-28T09:50:32;7.90;;;2.95;;
20731;SDS011;10527;52.124;5.196;2023-05-28T09:52:59;9.18;;;3.17;;
20731;SDS011;10527;52.124;5.196;2023-05-28T09:55:30;11.88;;;3.75;;
20731;SDS011;10527;52.124;5.196;2023-05-28T10:00:48;7.85;;;2.72;;
20731;SDS011;10527;52.124;5.196;2023-05-28T10:03:22;7.32;;;2.90;;
20731;SDS011;10527;52.124;5.196;2023-05-28T10:06:01;8.57;;;2.95;;
20731;SDS011;10527;52.124;5.196;2023-05-28T10:08:34;6.75;;;2.90;;
20731;SDS011;10527;52.124;5.196;2023-05-28T10:11:08;10.00;;;3.35;;
20731;SDS011;10527;52.124;5.196;2023-05-28T10:13:39;8.68;;;3.70;;
20731;SDS011;10527;52.124;5.196;2023-05-28T10:16:07;11.35;;;3.40;;
20731;SDS011;10527;52.124;5.196;2023-05-28T10:18:35;12.02;;;3.42;;
20731;SDS011;10527;52.124;5.196;2023-05-28T10:21:05;10.45;;;3.40;;
20731;SDS011;10527;52.124;5.196;2023-05-28T10:23:34;18.90;;;3.67;;
20731;SDS011;10527;52.124;5.196;2023-05-28T10:26:03;12.50;;;3.60;;
20731;SDS011;10527;52.124;5.196;2023-05-28T10:28:30;6.38;;;3.17;;
20731;SDS011;10527;52.124;5.196;2023-05-28T10:31:04;9.07;;;2.80;;
20731;SDS011;10527;52.124;5.196;2023-05-28T10:33:37;10.30;;;2.78;;
20731;SDS011;10527;52.124;5.196;2023-05-28T10:36:08;8.95;;;3.67;;
20731;SDS011;10527;52.124;5.196;2023-05-28T10:38:45;10.95;;;3.45;;
20731;SDS011;10527;52.124;5.196;2023-05-28T10:41:26;10.35;;;2.97;;
20731;SDS011;10527;52.124;5.196;2023-05-28T10:44:08;5.97;;;2.83;;
20731;SDS011;10527;52.124;5.196;2023-05-28T10:46:35;8.05;;;3.45;;
20731;SDS011;10527;52.124;5.196;2023-05-28T10:49:14;8.13;;;3.03;;
20731;SDS011;10527;52.124;5.196;2023-05-28T10:51:50;8.02;;;2.75;;
20731;SDS011;10527;52.124;5.196;2023-05-28T10:57:07;8.05;;;2.83;;
20731;SDS011;10527;52.124;5.196;2023-05-28T11:02:17;7.78;;;2.45;;
20731;SDS011;10527;52.124;5.196;2023-05-28T11:04:59;8.25;;;3.13;;
20731;SDS011;10527;52.124;5.196;2023-05-28T11:07:36;8.68;;;3.00;;
20731;SDS011;10527;52.124;5.196;2023-05-28T11:10:08;6.47;;;2.80;;
20731;SDS011;10527;52.124;5.196;2023-05-28T11:12:39;8.23;;;3.00;;
20731;SDS011;10527;52.124;5.196;2023-05-28T11:15:08;6.95;;;2.47;;
20731;SDS011;10527;52.124;5.196;2023-05-28T11:17:47;9.82;;;2.67;;
20731;SDS011;10527;52.124;5.196;2023-05-28T11:20:22;12.52;;;3.85;;
20731;SDS011;10527;52.124;5.196;2023-05-28T11:22:56;11.00;;;3.25;;
20731;SDS011;10527;52.124;5.196;2023-05-28T11:25:23;9.63;;;3.70;;
20731;SDS011;10527;52.124;5.196;2023-05-28T11:27:53;10.77;;;3.90;;
20731;SDS011;10527;52.124;5.196;2023-05-28T11:30:24;10.32;;;3.70;;
20731;SDS011;10527;52.124;5.196;2023-05-28T11:32:51;7.30;;;3.47;;
20731;SDS011;10527;52.124;5.196;2023-05-28T11:35:20;6.22;;;3.15;;
20731;SDS011;10527;52.124;5.196;2023-05-28T11:37:47;11.88;;;3.85;;
20731;SDS011;10527;52.124;5.196;2023-05-28T11:40:14;10.43;;;3.40;;
20731;SDS011;10527;52.124;5.196;2023-05-28T11:42:43;10.48;;;3.50;;
20731;SDS011;10527;52.124;5.196;2023-05-28T11:45:11;9.93;;;3.83;;
20731;SDS011;10527;52.124;5.196;2023-05-28T11:47:39;9.63;;;3.67;;
20731;SDS011;10527;52.124;5.196;2023-05-28T11:50:13;7.13;;;3.35;;
20731;SDS011;10527;52.124;5.196;2023-05-28T11:52:42;9.13;;;3.60;;
20731;SDS011;10527;52.124;5.196;2023-05-28T11:55:10;9.82;;;3.40;;
20731;SDS011;10527;52.124;5.196;2023-05-28T11:57:38;7.07;;;3.30;;
20731;SDS011;10527;52.124;5.196;2023-05-28T12:02:42;10.30;;;3.60;;
20731;SDS011;10527;52.124;5.196;2023-05-28T12:05:16;8.70;;;4.15;;
20731;SDS011;10527;52.124;5.196;2023-05-28T12:10:13;6.90;;;3.30;;
20731;SDS011;10527;52.124;5.196;2023-05-28T12:12:45;7.57;;;3.90;;
20731;SDS011;10527;52.124;5.196;2023-05-28T12:15:17;11.50;;;3.80;;
20731;SDS011;10527;52.124;5.196;2023-05-28T12:18:07;6.90;;;3.40;;
20731;SDS011;10527;52.124;5.196;2023-05-28T12:20:35;10.70;;;4.15;;
20731;SDS011;10527;52.124;5.196;2023-05-28T12:23:10;9.20;;;4.07;;
20731;SDS011;10527;52.124;5.196;2023-05-28T12:28:21;8.82;;;3.75;;
20731;SDS011;10527;52.124;5.196;2023-05-28T12:30:50;7.70;;;3.13;;
20731;SDS011;10527;52.124;5.196;2023-05-28T12:33:21;6.57;;;3.28;;
20731;SDS011;10527;52.124;5.196;2023-05-28T12:35:48;10.30;;;4.30;;
20731;SDS011;10527;52.124;5.196;2023-05-28T12:38:17;10.13;;;3.85;;
20731;SDS011;10527;52.124;5.196;2023-05-28T12:40:45;11.13;;;3.97;;
20731;SDS011;10527;52.124;5.196;2023-05-28T12:43:12;9.48;;;3.75;;
20731;SDS011;10527;52.124;5.196;2023-05-28T12:45:43;9.68;;;3.58;;
20731;SDS011;10527;52.124;5.196;2023-05-28T12:48:10;7.95;;;3.15;;
20731;SDS011;10527;52.124;5.196;2023-05-28T12:50:37;10.07;;;4.45;;
20731;SDS011;10527;52.124;5.196;2023-05-28T12:53:04;7.45;;;3.97;;
20731;SDS011;10527;52.124;5.196;2023-05-28T12:55:31;9.57;;;3.63;;
20731;SDS011;10527;52.124;5.196;2023-05-28T12:57:59;9.63;;;3.80;;
20731;SDS011;10527;52.124;5.196;2023-05-28T13:00:26;6.78;;;3.50;;
20731;SDS011;10527;52.124;5.196;2023-05-28T13:02:53;9.63;;;3.47;;
20731;SDS011;10527;52.124;5.196;2023-05-28T13:05:20;7.15;;;3.40;;
20731;SDS011;10527;52.124;5.196;2023-05-28T13:07:48;5.68;;;2.95;;
20731;SDS011;10527;52.124;5.196;2023-05-28T13:10:15;7.85;;;3.80;;
20731;SDS011;10527;52.124;5.196;2023-05-28T13:12:42;8.35;;;3.92;;
20731;SDS011;10527;52.124;5.196;2023-05-28T13:15:10;8.40;;;3.78;;
20731;SDS011;10527;52.124;5.196;2023-05-28T13:17:37;7.47;;;3.83;;
20731;SDS011;10527;52.124;5.196;2023-05-28T13:20:04;7.07;;;3.40;;
20731;SDS011;10527;52.124;5.196;2023-05-28T13:22:36;8.18;;;3.75;;
20731;SDS011;10527;52.124;5.196;2023-05-28T13:25:04;7.43;;;3.53;;
20731;SDS011;10527;52.124;5.196;2023-05-28T13:27:32;7.43;;;3.67;;
20731;SDS011;10527;52.124;5.196;2023-05-28T13:30:01;6.90;;;3.10;;
20731;SDS011;10527;52.124;5.196;2023-05-28T13:32:30;8.13;;;3.50;;
20731;SDS011;10527;52.124;5.196;2023-05-28T13:34:58;9.35;;;3.78;;
20731;SDS011;10527;52.124;5.196;2023-05-28T13:37:25;5.93;;;3.33;;
20731;SDS011;10527;52.124;5.196;2023-05-28T13:39:52;6.70;;;3.60;;
20731;SDS011;10527;52.124;5.196;2023-05-28T13:42:19;7.72;;;3.83;;
20731;SDS011;10527;52.124;5.196;2023-05-28T13:44:48;6.65;;;3.90;;
20731;SDS011;10527;52.124;5.196;2023-05-28T13:47:16;9.40;;;4.07;;
20731;SDS011;10527;52.124;5.196;2023-05-28T13:49:43;7.93;;;4.00;;
20731;SDS011;10527;52.124;5.196;2023-05-28T13:52:10;7.47;;;4.43;;
20731;SDS011;10527;52.124;5.196;2023-05-28T13:54:37;6.25;;;3.50;;
20731;SDS011;10527;52.124;5.196;2023-05-28T13:57:07;6.13;;;3.67;;
20731;SDS011;10527;52.124;5.196;2023-05-28T13:59:34;7.97;;;3.90;;
20731;SDS011;10527;52.124;5.196;2023-05-28T14:02:01;6.45;;;3.90;;
20731;SDS011;10527;52.124;5.196;2023-05-28T14:04:29;6.90;;;3.92;;
20731;SDS011;10527;52.124;5.196;2023-05-28T14:06:56;5.72;;;3.38;;
20731;SDS011;10527;52.124;5.196;2023-05-28T14:09:23;8.65;;;4.30;;
20731;SDS011;10527;52.124;5.196;2023-05-28T14:11:51;7.88;;;3.85;;
20731;SDS011;10527;52.124;5.196;2023-05-28T14:14:21;7.43;;;3.53;;
20731;SDS011;10527;52.124;5.196;2023-05-28T14:16:49;6.22;;;3.70;;
20731;SDS011;10527;52.124;5.196;2023-05-28T14:19:16;6.93;;;3.95;;
20731;SDS011;10527;52.124;5.196;2023-05-28T14:21:45;9.73;;;3.35;;
20731;SDS011;10527;52.124;5.196;2023-05-28T14:24:11;6.32;;;3.83;;
20731;SDS011;10527;52.124;5.196;2023-05-28T14:26:38;6.57;;;3.38;;
20731;SDS011;10527;52.124;5.196;2023-05-28T14:29:07;8.57;;;3.90;;
20731;SDS011;10527;52.124;5.196;2023-05-28T14:31:34;6.22;;;3.33;;
20731;SDS011;10527;52.124;5.196;2023-05-28T14:34:01;6.97;;;3.78;;
20731;SDS011;10527;52.124;5.196;2023-05-28T14:36:28;7.88;;;3.63;;
20731;SDS011;10527;52.124;5.196;2023-05-28T14:38:55;7.20;;;3.40;;
20731;SDS011;10527;52.124;5.196;2023-05-28T14:41:21;6.07;;;3.50;;
20731;SDS011;10527;52.124;5.196;2023-05-28T14:43:48;7.35;;;3.05;;
20731;SDS011;10527;52.124;5.196;2023-05-28T14:46:15;5.95;;;2.70;;
20731;SDS011;10527;52.124;5.196;2023-05-28T14:48:42;6.57;;;3.00;;
20731;SDS011;10527;52.124;5.196;2023-05-28T14:51:10;5.07;;;2.90;;
20731;SDS011;10527;52.124;5.196;2023-05-28T14:53:37;4.85;;;2.70;;
20731;SDS011;10527;52.124;5.196;2023-05-28T14:56:05;5.88;;;2.53;;
20731;SDS011;10527;52.124;5.196;2023-05-28T14:58:32;6.22;;;2.85;;
20731;SDS011;10527;52.124;5.196;2023-05-28T15:01:00;6.30;;;2.50;;
20731;SDS011;10527;52.124;5.196;2023-05-28T15:03:29;5.05;;;2.40;;